createdAt,value
2023-02-16T00:01:06.979Z,99.99
2023-02-16T00:06:26.268Z,99.99
2023-02-16T00:11:45.846Z,99.99
2023-02-16T00:17:05.401Z,99.99
2023-02-16T00:22:24.819Z,99.99
2023-02-16T00:27:44.324Z,99.99
2023-02-16T00:34:18.455Z,99.99
2023-02-16T00:38:24.380Z,99.99
2023-02-16T00:43:44.308Z,99.99
2023-02-16T00:49:03.798Z,99.99
2023-02-16T00:54:22.787Z,99.99
2023-02-16T00:59:42.276Z,99.99
2023-02-16T01:05:01.200Z,99.99
2023-02-16T01:10:20.449Z,99.99
2023-02-16T01:15:40.029Z,99.99
2023-02-16T01:20:59.265Z,99.99
2023-02-16T01:26:18.621Z,99.99
2023-02-16T01:31:38.049Z,99.99
2023-02-16T01:36:57.121Z,99.99
2023-02-16T01:42:16.756Z,99.99
2023-02-16T01:47:36.596Z,99.99
2023-02-16T01:52:55.568Z,99.99
2023-02-16T01:58:14.601Z,99.99
2023-02-16T02:03:33.940Z,99.99
2023-02-16T02:08:52.863Z,99.99
2023-02-16T02:14:11.952Z,99.99
2023-02-16T02:19:30.987Z,99.99
2023-02-16T02:24:50.225Z,99.99
2023-02-16T02:30:09.746Z,99.99
2023-02-16T02:35:29.645Z,99.99
2023-02-16T02:40:48.502Z,99.99
2023-02-16T02:46:08.348Z,99.99
2023-02-16T02:51:27.524Z,99.99
2023-02-16T02:56:46.879Z,99.99
2023-02-16T03:02:05.738Z,99.99
2023-02-16T03:07:25.585Z,99.99
2023-02-16T03:12:45.156Z,99.99
2023-02-16T03:18:04.546Z,99.99
2023-02-16T03:23:23.379Z,99.99
2023-02-16T03:28:42.523Z,99.99
2023-02-16T03:34:02.070Z,99.99
2023-02-16T03:39:21.289Z,99.99
2023-02-16T03:44:40.829Z,99.99
2023-02-16T03:50:00.414Z,99.99
2023-02-16T03:55:20.184Z,99.99
2023-02-16T04:00:39.181Z,99.99
2023-02-16T04:05:58.716Z,99.99
2023-02-16T04:11:18.502Z,99.99
2023-02-16T04:16:37.688Z,99.99
2023-02-16T04:17:05.716Z,99.38
2023-02-16T04:22:24.767Z,99.99
2023-02-16T04:27:43.648Z,99.99
2023-02-16T04:33:02.512Z,99.99
2023-02-16T04:38:21.566Z,99.99
2023-02-16T04:43:40.170Z,99.99
2023-02-16T04:48:58.994Z,99.99
2023-02-16T04:54:18.288Z,99.99
2023-02-16T04:59:37.212Z,99.99
2023-02-16T05:04:56.250Z,99.99
2023-02-16T05:10:15.499Z,99.99
2023-02-16T05:15:35.303Z,99.99
2023-02-16T05:20:54.768Z,99.99
2023-02-16T05:26:14.114Z,99.99
2023-02-16T05:31:33.777Z,99.99
2023-02-16T05:36:53.225Z,99.99
2023-02-16T05:42:12.496Z,99.99
2023-02-16T05:47:32.003Z,99.99
2023-02-16T05:52:51.359Z,99.99
2023-02-16T05:58:10.338Z,99.99
2023-02-16T06:03:29.315Z,99.99
2023-02-16T06:08:48.890Z,99.99
2023-02-16T06:14:07.773Z,99.99
2023-02-16T06:19:26.740Z,99.99
2023-02-16T06:24:45.862Z,99.99
2023-02-16T06:30:04.892Z,99.99
2023-02-16T06:35:24.610Z,99.99
2023-02-16T06:40:43.519Z,99.99
2023-02-16T06:46:03.017Z,99.99
2023-02-16T06:51:22.636Z,99.99
2023-02-16T06:56:41.695Z,99.99
2023-02-16T07:02:01.058Z,99.99
2023-02-16T07:07:20.511Z,99.99
2023-02-16T07:12:39.827Z,99.99
2023-02-16T07:17:59.571Z,99.99
2023-02-16T07:23:18.765Z,99.99
2023-02-16T07:28:38.318Z,99.99
2023-02-16T07:33:58.819Z,99.99
2023-02-16T07:39:17.838Z,99.99
2023-02-16T07:44:37.617Z,99.99
2023-02-16T07:55:16.155Z,99.99
2023-02-16T08:00:35.405Z,99.99
2023-02-16T08:05:54.690Z,99.99
2023-02-16T08:12:28.920Z,99.99
2023-02-16T08:16:34.207Z,99.99
2023-02-16T08:21:53.428Z,99.99
2023-02-16T08:27:12.407Z,99.99
2023-02-16T08:32:31.605Z,99.99
2023-02-16T08:37:50.864Z,99.99
2023-02-16T08:43:09.265Z,99.99
2023-02-16T08:48:28.393Z,99.99
2023-02-16T08:53:47.828Z,99.99
2023-02-16T08:59:06.678Z,99.99
2023-02-16T09:04:25.914Z,99.99
2023-02-16T09:09:45.435Z,99.99
2023-02-16T09:15:04.687Z,99.99
2023-02-16T09:20:24.071Z,99.99
2023-02-16T09:25:43.658Z,99.99
2023-02-16T09:31:03.006Z,99.99
2023-02-16T09:36:22.641Z,99.99
2023-02-16T09:41:41.572Z,99.99
2023-02-16T09:47:01.187Z,99.99
2023-02-16T09:52:20.467Z,99.99
2023-02-16T09:57:39.904Z,99.99
2023-02-16T10:02:58.897Z,99.99
2023-02-16T10:08:18.514Z,99.99
2023-02-16T10:13:37.354Z,99.96
2023-02-16T10:18:56.284Z,99.63
2023-02-16T10:24:15.207Z,98.59
2023-02-16T10:29:34.752Z,96.15
2023-02-16T10:36:08.929Z,85.41
2023-02-16T10:40:14.716Z,72.19
2023-02-16T10:45:33.874Z,64.16
2023-02-16T10:50:52.975Z,61.75
2023-02-16T10:56:11.779Z,59.11
2023-02-16T11:01:30.848Z,60.11
2023-02-16T11:06:49.816Z,57.95
2023-02-16T11:12:09.342Z,57.06
2023-02-16T11:17:28.171Z,56.6
2023-02-16T11:22:47.464Z,56.99
2023-02-16T11:28:06.767Z,57.89
2023-02-16T11:36:39.864Z,55.28
2023-02-16T11:49:24.356Z,53.17
2023-02-16T11:54:43.474Z,54.21
2023-02-16T12:00:01.258Z,52.94
2023-02-16T12:05:20.655Z,52.97
2023-02-16T12:10:40.034Z,53.97
2023-02-16T12:15:59.281Z,54.54
2023-02-16T12:22:33.442Z,54.01
2023-02-16T12:26:39.213Z,53.32
2023-02-16T12:31:58.533Z,52.38
2023-02-16T12:37:17.958Z,52.23
2023-02-16T12:42:37.079Z,51.43
2023-02-16T12:47:55.795Z,50.33
2023-02-16T12:53:15.101Z,53.06
2023-02-16T12:58:32.824Z,55.12
2023-02-16T13:03:52.494Z,55.27
2023-02-16T13:09:11.750Z,55.17
2023-02-16T13:14:30.929Z,55.57
2023-02-16T13:19:50.402Z,51.32
2023-02-16T13:25:08.878Z,53
2023-02-16T13:30:27.880Z,54.59
2023-02-16T13:35:46.992Z,54.93
2023-02-16T13:41:05.758Z,55.7
2023-02-16T13:46:25.384Z,54.97
2023-02-16T13:51:44.543Z,54.35
2023-02-16T13:57:04.591Z,54.78
2023-02-16T14:02:23.491Z,54.43
2023-02-16T14:07:42.562Z,54.07
2023-02-16T14:13:02.270Z,53.22
2023-02-16T14:18:21.544Z,52.98
2023-02-16T14:23:40.723Z,54.1
2023-02-16T14:28:59.607Z,54.77
2023-02-16T14:34:18.845Z,56.11
2023-02-16T14:39:48.083Z,56.59
2023-02-16T14:44:57.054Z,56.35
2023-02-16T14:50:16.550Z,57.11
2023-02-16T14:55:35.568Z,56.93
2023-02-16T15:00:54.667Z,57.36
2023-02-16T15:06:14.067Z,57
2023-02-16T15:11:32.965Z,58.56
2023-02-16T15:16:52.388Z,58.21
2023-02-16T15:22:11.704Z,58.73
2023-02-16T15:27:31.169Z,58.21
2023-02-16T15:32:50.196Z,58.36
2023-02-16T15:38:09.903Z,58.76
2023-02-16T15:43:29.298Z,58.9
2023-02-16T15:48:47.997Z,58.92
2023-02-16T15:54:06.773Z,58.86
2023-02-16T15:59:25.716Z,58.4
2023-02-16T16:04:45.131Z,59.06
2023-02-16T16:10:04.161Z,58.47
2023-02-16T16:15:23.031Z,59.02
2023-02-16T16:20:42.214Z,58.83
2023-02-16T16:27:16.386Z,59.11
2023-02-16T16:31:20.547Z,59.63
2023-02-16T16:36:39.675Z,60.55
2023-02-16T16:41:59.058Z,60.84
2023-02-16T16:47:17.924Z,61.13
2023-02-16T16:52:37.383Z,61.08
2023-02-16T16:57:56.487Z,61.12
2023-02-16T17:03:15.766Z,61.24
2023-02-16T17:08:34.931Z,61.61
2023-02-16T17:13:54.123Z,63.03
2023-02-16T17:19:13.262Z,64.26
2023-02-16T17:24:33.015Z,63.6
2023-02-16T17:29:52.392Z,63.35
2023-02-16T17:35:11.949Z,63.13
2023-02-16T17:40:31.276Z,63.08
2023-02-16T17:45:50.563Z,62.54
2023-02-16T17:51:09.943Z,61.67
2023-02-16T17:56:28.068Z,61.37
2023-02-16T18:01:46.936Z,61.31
2023-02-16T18:07:06.195Z,60.71
2023-02-16T18:12:27.439Z,60.44
2023-02-16T18:17:44.037Z,59.59
2023-02-16T18:23:03.424Z,59.56
2023-02-16T18:28:22.210Z,59.64
2023-02-16T18:33:41.673Z,59.64
2023-02-16T18:39:00.495Z,60.25
2023-02-16T18:44:20.225Z,60.17
2023-02-16T18:49:39.494Z,60.11
2023-02-16T18:54:58.461Z,60.2
2023-02-16T19:00:18.022Z,59.92
2023-02-16T19:05:37.500Z,60.57
2023-02-16T19:10:57.026Z,60.82
2023-02-16T19:16:16.282Z,61.02
2023-02-16T19:21:35.327Z,60.83
2023-02-16T19:26:54.446Z,60.83
2023-02-16T19:32:13.749Z,61.02
2023-02-16T19:37:33.270Z,61.14
2023-02-16T19:42:52.237Z,61.29
2023-02-16T19:48:11.728Z,61.56
2023-02-16T19:53:31.396Z,61.67
2023-02-16T19:58:49.472Z,62.22
2023-02-16T20:04:08.701Z,62.05
2023-02-16T20:09:27.553Z,62.16
2023-02-16T20:14:46.619Z,62.36
2023-02-16T20:20:05.908Z,62.69
2023-02-16T20:25:25.578Z,62.96
2023-02-16T20:30:44.411Z,63.45
2023-02-16T20:36:03.940Z,63.57
2023-02-16T20:41:22.477Z,63.92
2023-02-16T20:46:41.997Z,64.18
2023-02-16T20:52:00.755Z,64.21
2023-02-16T20:57:26.617Z,64.25
2023-02-16T21:02:39.094Z,64.01
2023-02-16T21:07:57.992Z,64.26
2023-02-16T21:13:16.974Z,64.37
2023-02-16T21:18:38.249Z,64.26
2023-02-16T21:23:55.425Z,64.01
2023-02-16T21:29:15.131Z,64.12
2023-02-16T21:34:34.410Z,64.37
2023-02-16T21:39:53.773Z,64.26
2023-02-16T21:45:12.500Z,64.61
2023-02-16T21:50:32.001Z,64.16
2023-02-16T21:55:50.854Z,64.04
2023-02-16T22:02:25.005Z,64.28
2023-02-16T22:06:29.502Z,64.41
2023-02-16T22:06:55.600Z,62.97
2023-02-16T22:12:15.226Z,64.33
2023-02-16T22:17:34.833Z,64.51
2023-02-16T22:22:54.127Z,64.94
2023-02-16T22:28:12.995Z,65.18
2023-02-16T22:35:11.603Z,65.26
2023-02-16T22:38:51.644Z,65.42
2023-02-16T22:44:10.781Z,65.37
2023-02-16T22:49:30.233Z,65.07
2023-02-16T22:54:49.868Z,64.44
2023-02-16T23:00:09.475Z,64.35
2023-02-16T23:05:29.303Z,64.28
2023-02-16T23:10:48.952Z,64.33
2023-02-16T23:16:07.944Z,64
2023-02-16T23:21:26.839Z,63.95
2023-02-16T23:26:46.470Z,63.88
2023-02-16T23:32:05.833Z,63.59
2023-02-16T23:37:24.876Z,63.36
2023-02-16T23:42:44.289Z,63.59
2023-02-16T23:48:03.154Z,63.35
2023-02-16T23:53:22.299Z,62.94
2023-02-16T23:58:41.898Z,62.89
